Time;durP1;ratioP1;P1;durP2;ratioP2;P2;SDS_P1;SDS_P2;PMS_P1;PMS_P2;Temp;Humidity;BMP_temperature;BMP_pressure;BME280_temperature;BME280_humidity;BME280_pressure;Samples;Min_cycle;Max_cycle;Signal;HPM_P1;HPM_P2
2022/11/13 00:01:33;;;;;;;;;;;10.40;99.90;;;;;;5077160;28;19966;-80
2022/11/13 00:03:59;;;;;;;;;;;10.30;99.90;;;;;;5080653;28;20262;-80
2022/11/13 00:06:24;;;;;;;;;;;10.30;99.90;;;;;;5079937;28;19909;-80
2022/11/13 00:08:52;;;;;;;;;;;10.20;99.90;;;;;;5080370;28;19970;-80
2022/11/13 00:11:18;;;;;;;;;;;10.20;99.90;;;;;;5081404;28;19919;-78
2022/11/13 00:13:44;;;;;;;;;;;10.20;99.90;;;;;;5081248;28;19908;-79
2022/11/13 00:16:11;;;;;;;;;;;10.10;99.90;;;;;;5080682;28;20319;-78
2022/11/13 00:18:36;;;;;;;;;;;10.10;99.90;;;;;;5080329;28;19909;-78
2022/11/13 00:21:06;;;;;;;;;;;10.00;99.90;;;;;;5080582;28;19955;-78
2022/11/13 00:23:35;;;;;;;;;;;9.90;99.90;;;;;;5079578;28;19915;-78
2022/11/13 00:26:04;;;;;;;;;;;9.90;99.90;;;;;;5078854;28;20401;-80
2022/11/13 00:28:30;;;;;;;;;;;9.80;99.90;;;;;;5075573;28;20285;-78
2022/11/13 00:30:59;;;;;;;;;;;9.80;99.90;;;;;;5076182;28;19917;-78
2022/11/13 00:33:25;;;;;;;;;;;9.70;99.90;;;;;;5077188;28;19909;-81
2022/11/13 00:35:50;;;;;;;;;;;9.70;99.90;;;;;;5077314;28;19916;-78
2022/11/13 00:38:15;;;;;;;;;;;9.70;99.90;;;;;;5077916;28;19909;-80
2022/11/13 00:40:41;;;;;;;;;;;9.80;99.90;;;;;;5077162;28;19915;-79
2022/11/13 00:43:06;;;;;;;;;;;9.80;99.90;;;;;;5076524;28;19962;-79
2022/11/13 00:45:32;;;;;;;;;;;9.80;99.90;;;;;;5077292;28;20350;-78
2022/11/13 00:47:57;;;;;;;;;;;9.80;99.90;;;;;;5076914;28;19916;-79
2022/11/13 00:50:23;;;;;;;;;;;9.90;99.90;;;;;;5076312;28;19918;-79
2022/11/13 00:52:48;;;;;;;;;;;9.90;99.90;;;;;;5076531;28;19959;-79
2022/11/13 00:55:14;;;;;;;;;;;9.90;99.90;;;;;;5076845;28;20341;-79
2022/11/13 00:57:39;;;;;;;;;;;10.00;99.90;;;;;;5078801;28;19908;-80
2022/11/13 01:00:05;;;;;;;;;;;10.00;99.90;;;;;;5076536;28;20290;-80
2022/11/13 01:02:30;;;;;;;;;;;10.00;99.90;;;;;;5076836;28;20003;-79
2022/11/13 01:04:56;;;;;;;;;;;10.00;99.90;;;;;;5076547;28;19909;-79
2022/11/13 01:07:21;;;;;;;;;;;10.00;99.90;;;;;;5077310;28;20289;-79
2022/11/13 01:09:50;;;;;;;;;;;10.00;99.90;;;;;;5077449;28;19916;-79
2022/11/13 01:12:16;;;;;;;;;;;10.00;99.90;;;;;;5077945;28;19999;-79
2022/11/13 01:14:41;;;;;;;;;;;10.00;99.90;;;;;;5077334;28;20001;-77
2022/11/13 01:17:06;;;;;;;;;;;10.00;99.90;;;;;;5077308;28;19912;-78
2022/11/13 01:19:32;;;;;;;;;;;10.00;99.90;;;;;;5075585;28;19991;-79
2022/11/13 01:21:57;;;;;;;;;;;10.00;99.90;;;;;;5075553;28;20362;-77
2022/11/13 01:24:23;;;;;;;;;;;10.00;99.90;;;;;;5078144;28;19967;-79
2022/11/13 01:26:49;;;;;;;;;;;9.90;99.90;;;;;;5078668;28;19908;-78
2022/11/13 01:29:14;;;;;;;;;;;9.90;99.90;;;;;;5078936;28;19930;-79
2022/11/13 01:31:39;;;;;;;;;;;9.90;99.90;;;;;;5082680;28;19916;-79
2022/11/13 01:34:05;;;;;;;;;;;9.90;99.90;;;;;;5078039;28;19908;-79
2022/11/13 01:36:30;;;;;;;;;;;9.80;99.90;;;;;;5078635;28;19915;-80
2022/11/13 01:38:56;;;;;;;;;;;9.80;99.90;;;;;;5079034;28;19909;-79
2022/11/13 01:41:23;;;;;;;;;;;9.80;99.90;;;;;;5080490;28;19962;-80
2022/11/13 01:43:49;;;;;;;;;;;9.80;99.90;;;;;;5078849;28;19954;-80
2022/11/13 01:46:16;;;;;;;;;;;9.80;99.90;;;;;;5081982;28;20358;-80
2022/11/13 01:48:48;;;;;;;;;;;9.80;99.90;;;;;;5079213;28;19916;-79
2022/11/13 01:51:26;;;;;;;;;;;9.80;99.90;;;;;;5079104;28;19913;-80
2022/11/13 01:53:52;;;;;;;;;;;9.80;99.90;;;;;;5078658;28;20270;-80
2022/11/13 01:56:18;;;;;;;;;;;9.80;99.90;;;;;;5079131;28;19915;-78
2022/11/13 01:58:47;;;;;;;;;;;9.80;99.90;;;;;;5076147;28;19915;-79
2022/11/13 02:01:12;;;;;;;;;;;9.80;99.90;;;;;;5078764;28;20408;-79
2022/11/13 02:03:38;;;;;;;;;;;9.80;99.90;;;;;;5078791;28;19909;-80
2022/11/13 02:06:03;;;;;;;;;;;9.90;99.90;;;;;;5084071;28;19954;-80
2022/11/13 02:08:29;;;;;;;;;;;9.90;99.90;;;;;;5080721;28;19908;-77
2022/11/13 02:10:54;;;;;;;;;;;9.90;99.90;;;;;;5078107;28;20065;-80
2022/11/13 02:13:20;;;;;;;;;;;9.90;99.90;;;;;;5079149;28;20370;-78
2022/11/13 02:15:46;;;;;;;;;;;9.90;99.90;;;;;;5079548;28;19915;-77
2022/11/13 02:18:13;;;;;;;;;;;9.90;99.90;;;;;;5077757;28;19909;-79
2022/11/13 02:20:54;;;;;;;;;;;9.90;99.90;;;;;;5077524;28;19916;-79
2022/11/13 02:23:24;;;;;;;;;;;9.90;99.90;;;;;;5079123;28;20361;-78
2022/11/13 02:25:50;;;;;;;;;;;9.90;99.90;;;;;;5079404;28;19955;-78
2022/11/13 02:28:16;;;;;;;;;;;9.90;99.90;;;;;;5079342;28;20349;-79
2022/11/13 02:30:41;;;;;;;;;;;9.90;99.90;;;;;;5077590;28;19920;-79
2022/11/13 02:33:36;;;;;;;;;;;9.90;99.90;;;;;;5077402;28;20374;-80
2022/11/13 02:36:03;;;;;;;;;;;9.90;99.90;;;;;;5078905;28;19908;-79
2022/11/13 02:38:29;;;;;;;;;;;9.80;99.90;;;;;;5079298;28;19908;-80
2022/11/13 02:40:54;;;;;;;;;;;9.80;99.90;;;;;;5078207;28;19947;-79
2022/11/13 02:43:19;;;;;;;;;;;9.80;99.90;;;;;;5078516;28;19931;-78
2022/11/13 02:45:45;;;;;;;;;;;9.80;99.90;;;;;;5077250;28;20015;-80
2022/11/13 02:48:10;;;;;;;;;;;9.80;99.90;;;;;;5078567;28;20286;-80
2022/11/13 02:50:37;;;;;;;;;;;9.80;99.90;;;;;;5078601;28;20100;-79
2022/11/13 02:53:03;;;;;;;;;;;9.80;99.90;;;;;;5077254;28;19909;-79
2022/11/13 02:55:28;;;;;;;;;;;9.80;99.90;;;;;;5077471;28;19908;-80
2022/11/13 02:57:53;;;;;;;;;;;9.80;99.90;;;;;;5075655;28;19908;-80
2022/11/13 03:00:19;;;;;;;;;;;9.70;99.90;;;;;;5076251;28;19908;-79
2022/11/13 03:02:48;;;;;;;;;;;9.70;99.90;;;;;;5078427;28;19913;-76
2022/11/13 03:05:13;;;;;;;;;;;9.70;99.90;;;;;;5077006;28;19975;-79
2022/11/13 03:07:39;;;;;;;;;;;9.70;99.90;;;;;;5078622;28;19947;-78
2022/11/13 03:10:05;;;;;;;;;;;9.60;99.90;;;;;;5078371;28;19912;-79
2022/11/13 03:12:31;;;;;;;;;;;9.60;99.90;;;;;;5079768;28;19916;-77
2022/11/13 03:14:57;;;;;;;;;;;9.60;99.90;;;;;;5076373;28;19913;-78
2022/11/13 03:17:22;;;;;;;;;;;9.50;99.90;;;;;;5077247;28;19909;-79
2022/11/13 03:19:48;;;;;;;;;;;9.50;99.90;;;;;;5077006;28;19908;-80
2022/11/13 03:22:13;;;;;;;;;;;9.50;99.90;;;;;;5078123;28;20389;-79
2022/11/13 03:24:38;;;;;;;;;;;9.50;99.90;;;;;;5076729;28;19908;-79
2022/11/13 03:27:04;;;;;;;;;;;9.50;99.90;;;;;;5077485;28;19955;-79
2022/11/13 03:29:29;;;;;;;;;;;9.40;99.90;;;;;;5076162;28;19935;-80
2022/11/13 03:31:55;;;;;;;;;;;9.40;99.90;;;;;;5078140;28;19917;-79
2022/11/13 03:34:20;;;;;;;;;;;9.40;99.90;;;;;;5078238;28;19908;-80
2022/11/13 03:36:46;;;;;;;;;;;9.30;99.90;;;;;;5077660;28;19908;-79
2022/11/13 03:39:12;;;;;;;;;;;9.30;99.90;;;;;;5077889;28;19932;-77
2022/11/13 03:41:37;;;;;;;;;;;9.30;99.90;;;;;;5077962;28;19913;-79
2022/11/13 03:44:03;;;;;;;;;;;9.20;99.90;;;;;;5078426;28;20293;-80
2022/11/13 03:46:28;;;;;;;;;;;9.20;99.90;;;;;;5076385;28;19909;-80
2022/11/13 03:48:53;;;;;;;;;;;9.10;99.90;;;;;;5076230;28;20362;-78
2022/11/13 03:51:19;;;;;;;;;;;9.10;99.90;;;;;;5078639;28;20033;-79
2022/11/13 03:53:44;;;;;;;;;;;9.10;99.90;;;;;;5076092;28;20277;-78
2022/11/13 03:56:10;;;;;;;;;;;9.10;99.90;;;;;;5076814;28;19915;-79
2022/11/13 03:58:35;;;;;;;;;;;9.00;99.90;;;;;;5076876;28;19915;-79
2022/11/13 04:01:01;;;;;;;;;;;9.00;99.90;;;;;;5077900;28;19954;-78
2022/11/13 04:03:26;;;;;;;;;;;9.00;99.90;;;;;;5076003;28;20273;-78
2022/11/13 04:05:52;;;;;;;;;;;9.00;99.90;;;;;;5076378;28;19954;-82
2022/11/13 04:08:18;;;;;;;;;;;9.00;99.90;;;;;;5076033;28;20600;-79
2022/11/13 04:10:43;;;;;;;;;;;8.90;99.90;;;;;;5077719;28;19961;-79
2022/11/13 04:13:09;;;;;;;;;;;8.90;99.90;;;;;;5075213;28;19916;-80
2022/11/13 04:15:34;;;;;;;;;;;8.80;99.90;;;;;;5074362;28;19908;-80
2022/11/13 04:18:00;;;;;;;;;;;8.80;99.90;;;;;;5077710;28;20374;-80
2022/11/13 04:20:26;;;;;;;;;;;8.80;99.90;;;;;;5078410;28;19993;-80
2022/11/13 04:22:53;;;;;;;;;;;8.80;99.90;;;;;;5080574;28;20324;-80
2022/11/13 04:25:18;;;;;;;;;;;8.80;99.90;;;;;;5078055;28;19919;-82
2022/11/13 04:27:44;;;;;;;;;;;8.70;99.90;;;;;;5079103;28;19992;-79
2022/11/13 04:30:09;;;;;;;;;;;8.70;99.90;;;;;;5081237;28;20366;-81
2022/11/13 04:32:35;;;;;;;;;;;8.70;99.90;;;;;;5079632;28;20006;-78
2022/11/13 04:35:00;;;;;;;;;;;8.70;99.90;;;;;;5078743;28;19961;-83
2022/11/13 04:37:26;;;;;;;;;;;8.70;99.90;;;;;;5079718;28;20298;-80
2022/11/13 04:39:51;;;;;;;;;;;8.70;99.90;;;;;;5077821;28;19908;-78
2022/11/13 04:45:01;;;;;;;;;;;8.60;99.90;;;;;;5078968;28;19997;-81
2022/11/13 04:47:26;;;;;;;;;;;8.60;99.90;;;;;;5078976;28;19917;-82
2022/11/13 04:49:52;;;;;;;;;;;8.60;99.90;;;;;;5077058;28;20001;-82
2022/11/13 04:52:17;;;;;;;;;;;8.60;99.90;;;;;;5077844;28;19927;-81
2022/11/13 04:54:43;;;;;;;;;;;8.50;99.90;;;;;;5077326;28;19963;-80
2022/11/13 04:57:08;;;;;;;;;;;8.50;99.90;;;;;;5078972;28;20407;-79
2022/11/13 04:59:34;;;;;;;;;;;8.50;99.90;;;;;;5080531;28;19991;-79
2022/11/13 05:01:59;;;;;;;;;;;8.60;99.90;;;;;;5077670;28;19909;-79
2022/11/13 05:04:25;;;;;;;;;;;8.60;99.90;;;;;;5079424;28;20443;-80
2022/11/13 05:06:50;;;;;;;;;;;8.60;99.90;;;;;;5080519;28;20385;-79
2022/11/13 05:09:16;;;;;;;;;;;8.60;99.90;;;;;;5078788;28;19931;-77
2022/11/13 05:11:41;;;;;;;;;;;8.60;99.90;;;;;;5080135;28;19927;-80
2022/11/13 05:14:07;;;;;;;;;;;8.60;99.90;;;;;;5078033;28;20002;-82
2022/11/13 05:16:34;;;;;;;;;;;8.60;99.90;;;;;;5079668;28;19915;-79
2022/11/13 05:18:59;;;;;;;;;;;8.60;99.90;;;;;;5078619;28;19963;-80
2022/11/13 05:21:25;;;;;;;;;;;8.60;99.90;;;;;;5079623;28;19909;-80
2022/11/13 05:23:50;;;;;;;;;;;8.60;99.90;;;;;;5078629;28;19940;-79
2022/11/13 05:26:16;;;;;;;;;;;8.70;99.90;;;;;;5078689;28;19912;-80
2022/11/13 05:28:41;;;;;;;;;;;8.60;99.90;;;;;;5078507;28;19916;-79
2022/11/13 05:31:08;;;;;;;;;;;8.60;99.90;;;;;;5092154;22;19932;-77
2022/11/13 05:33:34;;;;;;;;;;;8.60;99.90;;;;;;5074068;28;19958;-77
2022/11/13 05:36:01;;;;;;;;;;;8.60;99.90;;;;;;5075068;28;19912;-77
2022/11/13 05:38:27;;;;;;;;;;;8.60;99.90;;;;;;5074721;28;19908;-78
2022/11/13 05:40:52;;;;;;;;;;;8.70;99.90;;;;;;5074790;28;20405;-78
2022/11/13 05:43:17;;;;;;;;;;;8.70;99.90;;;;;;5072805;28;20273;-78
2022/11/13 05:45:43;;;;;;;;;;;8.70;99.90;;;;;;5074924;28;19915;-78
2022/11/13 05:48:08;;;;;;;;;;;8.70;99.90;;;;;;5074086;28;19909;-77
2022/11/13 05:50:34;;;;;;;;;;;8.70;99.90;;;;;;5074998;28;19916;-77
2022/11/13 05:52:59;;;;;;;;;;;8.60;99.90;;;;;;5075385;28;19909;-77
2022/11/13 05:55:25;;;;;;;;;;;8.70;99.90;;;;;;5074408;28;19913;-77
2022/11/13 05:57:50;;;;;;;;;;;8.70;99.90;;;;;;5075843;28;19959;-77
2022/11/13 06:00:16;;;;;;;;;;;8.60;99.90;;;;;;5075335;28;19916;-77
2022/11/13 06:02:41;;;;;;;;;;;8.60;99.90;;;;;;5075028;28;19912;-78
2022/11/13 06:05:07;;;;;;;;;;;8.60;99.90;;;;;;5073173;28;19947;-77
2022/11/13 06:07:32;;;;;;;;;;;8.60;99.90;;;;;;5074847;28;20007;-77
2022/11/13 06:09:58;;;;;;;;;;;8.60;99.90;;;;;;5075164;28;19915;-78
2022/11/13 06:12:23;;;;;;;;;;;8.60;99.90;;;;;;5074658;28;19908;-77
2022/11/13 06:14:49;;;;;;;;;;;8.60;99.90;;;;;;5074980;28;20366;-77
2022/11/13 06:17:14;;;;;;;;;;;8.50;99.90;;;;;;5074900;28;19912;-77
2022/11/13 06:19:40;;;;;;;;;;;8.50;99.90;;;;;;5074468;28;19919;-79
2022/11/13 06:22:05;;;;;;;;;;;8.50;99.90;;;;;;5073943;28;19916;-79
2022/11/13 06:24:30;;;;;;;;;;;8.40;99.90;;;;;;5073987;28;20370;-77
2022/11/13 06:26:56;;;;;;;;;;;8.40;99.90;;;;;;5074929;28;20259;-77
2022/11/13 06:29:22;;;;;;;;;;;8.40;99.90;;;;;;5073715;28;19916;-77
2022/11/13 06:31:47;;;;;;;;;;;8.40;99.90;;;;;;5074264;28;19975;-77
2022/11/13 06:34:13;;;;;;;;;;;8.40;99.90;;;;;;5074104;28;19909;-78
2022/11/13 06:36:38;;;;;;;;;;;8.30;99.90;;;;;;5073388;28;19915;-78
2022/11/13 06:39:04;;;;;;;;;;;8.20;99.90;;;;;;5073744;28;19909;-77
2022/11/13 06:41:30;;;;;;;;;;;8.20;99.90;;;;;;5074475;28;19912;-77
2022/11/13 06:43:58;;;;;;;;;;;8.10;99.90;;;;;;5073231;28;20006;-79
2022/11/13 06:46:25;;;;;;;;;;;8.10;99.90;;;;;;5074212;28;19995;-79
2022/11/13 06:48:51;;;;;;;;;;;8.10;99.90;;;;;;5073049;28;20000;-78
2022/11/13 06:51:17;;;;;;;;;;;8.00;99.90;;;;;;5073358;28;20378;-79
2022/11/13 06:53:43;;;;;;;;;;;7.90;99.90;;;;;;5072920;28;19916;-78
2022/11/13 06:56:09;;;;;;;;;;;7.90;99.90;;;;;;5072911;28;19908;-78
2022/11/13 06:58:35;;;;;;;;;;;7.90;99.90;;;;;;5074333;28;19915;-77
2022/11/13 07:01:05;;;;;;;;;;;7.80;99.90;;;;;;5073189;28;20114;-79
2022/11/13 07:03:30;;;;;;;;;;;7.80;99.90;;;;;;5073523;28;19916;-77
2022/11/13 07:05:56;;;;;;;;;;;7.80;99.90;;;;;;5073451;28;19908;-78
2022/11/13 07:08:21;;;;;;;;;;;7.80;99.90;;;;;;5074339;28;19912;-78
2022/11/13 07:10:53;;;;;;;;;;;7.70;99.90;;;;;;5072894;28;19909;-78
2022/11/13 07:13:19;;;;;;;;;;;7.70;99.90;;;;;;5072669;28;19931;-78
2022/11/13 07:15:45;;;;;;;;;;;7.70;99.90;;;;;;5072627;28;19908;-78
2022/11/13 07:18:10;;;;;;;;;;;7.60;99.90;;;;;;5072792;28;19908;-79
2022/11/13 07:20:35;;;;;;;;;;;7.60;99.90;;;;;;5071488;28;20384;-78
2022/11/13 07:23:02;;;;;;;;;;;7.60;99.90;;;;;;5072623;28;19934;-78
2022/11/13 07:25:28;;;;;;;;;;;7.70;99.90;;;;;;5072868;28;20521;-78
2022/11/13 07:27:53;;;;;;;;;;;7.70;99.90;;;;;;5072680;28;19912;-79
2022/11/13 07:30:19;;;;;;;;;;;7.70;99.90;;;;;;5072667;28;19909;-78
2022/11/13 07:32:44;;;;;;;;;;;7.70;99.90;;;;;;5072817;28;19917;-78
2022/11/13 07:35:10;;;;;;;;;;;7.70;99.90;;;;;;5071294;28;20365;-78
2022/11/13 07:37:35;;;;;;;;;;;7.80;99.90;;;;;;5072572;28;19916;-78
2022/11/13 07:40:01;;;;;;;;;;;7.80;99.90;;;;;;5073280;28;19924;-77
2022/11/13 07:42:26;;;;;;;;;;;7.80;99.90;;;;;;5073760;28;19916;-77
2022/11/13 07:44:52;;;;;;;;;;;7.90;99.90;;;;;;5073623;28;20409;-78
2022/11/13 07:47:17;;;;;;;;;;;8.00;99.90;;;;;;5072291;28;19919;-77
2022/11/13 07:49:43;;;;;;;;;;;8.00;99.90;;;;;;5072402;28;19956;-77
2022/11/13 07:52:08;;;;;;;;;;;8.10;99.90;;;;;;5072184;28;19915;-78
2022/11/13 07:54:34;;;;;;;;;;;8.10;99.90;;;;;;5073507;28;19954;-77
2022/11/13 07:56:59;;;;;;;;;;;8.20;99.90;;;;;;5075113;28;19973;-77
2022/11/13 07:59:25;;;;;;;;;;;8.20;99.90;;;;;;5077518;28;19952;-77
2022/11/13 08:01:50;;;;;;;;;;;8.30;99.90;;;;;;5078060;28;19920;-77
2022/11/13 08:04:15;;;;;;;;;;;8.40;99.90;;;;;;5075536;28;19913;-79
2022/11/13 08:06:41;;;;;;;;;;;8.50;99.90;;;;;;5076034;28;19912;-78
2022/11/13 08:09:06;;;;;;;;;;;8.50;99.90;;;;;;5077497;28;19909;-78
2022/11/13 08:11:32;;;;;;;;;;;8.60;99.90;;;;;;5077459;28;19916;-77
2022/11/13 08:13:57;;;;;;;;;;;8.70;99.90;;;;;;5077002;28;19908;-78
2022/11/13 08:16:23;;;;;;;;;;;8.80;99.90;;;;;;5077244;28;19908;-78
2022/11/13 08:18:49;;;;;;;;;;;8.90;99.90;;;;;;5075577;28;19958;-78
2022/11/13 08:21:14;;;;;;;;;;;8.90;99.90;;;;;;5075916;28;19935;-79
2022/11/13 08:23:40;;;;;;;;;;;9.00;99.90;;;;;;5074059;28;19996;-80
2022/11/13 08:26:06;;;;;;;;;;;9.10;99.90;;;;;;5075604;28;20007;-80
2022/11/13 08:28:32;;;;;;;;;;;9.10;99.90;;;;;;5074324;28;19967;-79
2022/11/13 08:30:58;;;;;;;;;;;9.20;99.90;;;;;;5073916;28;19946;-79
2022/11/13 08:33:23;;;;;;;;;;;9.30;99.90;;;;;;5075278;28;19954;-80
2022/11/13 08:35:56;;;;;;;;;;;9.40;99.90;;;;;;5075392;28;19932;-81
2022/11/13 08:38:21;;;;;;;;;;;9.60;99.90;;;;;;5075321;28;19912;-80
2022/11/13 08:40:47;;;;;;;;;;;9.70;99.90;;;;;;5073867;28;19913;-79
2022/11/13 08:43:13;;;;;;;;;;;9.80;99.90;;;;;;5074309;28;19908;-79
2022/11/13 08:45:38;;;;;;;;;;;9.90;99.90;;;;;;5075711;28;19962;-79
2022/11/13 08:48:04;;;;;;;;;;;10.00;99.90;;;;;;5075718;28;19909;-79
2022/11/13 08:50:30;;;;;;;;;;;10.10;99.90;;;;;;5075541;28;19916;-80
2022/11/13 08:52:56;;;;;;;;;;;10.20;99.90;;;;;;5074888;28;19915;-80
2022/11/13 08:55:22;;;;;;;;;;;10.30;99.90;;;;;;5073903;28;19908;-80
2022/11/13 08:57:48;;;;;;;;;;;10.40;99.90;;;;;;5075216;28;20278;-80
2022/11/13 09:00:14;;;;;;;;;;;10.50;99.90;;;;;;5075425;28;19913;-79
2022/11/13 09:02:39;;;;;;;;;;;10.60;99.90;;;;;;5076073;28;19943;-78
2022/11/13 09:05:05;;;;;;;;;;;10.70;99.90;;;;;;5076108;28;19909;-78
2022/11/13 09:07:31;;;;;;;;;;;10.80;99.90;;;;;;5074496;28;19912;-79
2022/11/13 09:09:56;;;;;;;;;;;10.90;99.90;;;;;;5075202;28;19936;-81
2022/11/13 09:12:21;;;;;;;;;;;11.00;99.90;;;;;;5073326;28;19909;-80
2022/11/13 09:14:47;;;;;;;;;;;11.00;99.90;;;;;;5074960;28;19909;-79
2022/11/13 09:17:12;;;;;;;;;;;11.10;99.90;;;;;;5075030;28;20393;-79
2022/11/13 09:19:38;;;;;;;;;;;11.20;99.90;;;;;;5075194;28;19932;-79
2022/11/13 09:22:03;;;;;;;;;;;11.30;99.90;;;;;;5075206;28;19952;-79
2022/11/13 09:24:29;;;;;;;;;;;11.40;99.90;;;;;;5075964;28;19909;-79
2022/11/13 09:26:54;;;;;;;;;;;11.50;99.90;;;;;;5073981;28;19909;-80
2022/11/13 09:29:22;;;;;;;;;;;11.50;99.90;;;;;;5074543;28;19908;-78
2022/11/13 09:31:47;;;;;;;;;;;11.70;99.90;;;;;;5074707;28;19924;-80
2022/11/13 09:34:13;;;;;;;;;;;11.70;99.90;;;;;;5073953;28;19909;-80
2022/11/13 09:36:38;;;;;;;;;;;11.80;99.90;;;;;;5075075;28;19912;-80
2022/11/13 09:39:04;;;;;;;;;;;11.90;99.90;;;;;;5074894;28;19919;-78
2022/11/13 09:41:53;;;;;;;;;;;12.00;99.90;;;;;;5075191;28;20366;-79
2022/11/13 09:44:30;;;;;;;;;;;12.10;99.90;;;;;;5068171;28;19908;-79
2022/11/13 09:47:17;;;;;;;;;;;12.10;99.90;;;;;;5075696;28;19915;-78
2022/11/13 09:49:45;;;;;;;;;;;12.20;99.90;;;;;;5074791;28;19977;-78
2022/11/13 09:52:15;;;;;;;;;;;12.30;99.90;;;;;;5072415;28;20015;-80
2022/11/13 09:54:41;;;;;;;;;;;12.30;99.90;;;;;;5074659;28;20308;-79
2022/11/13 09:57:09;;;;;;;;;;;12.50;99.90;;;;;;5075052;28;19958;-79
2022/11/13 09:59:56;;;;;;;;;;;12.60;99.90;;;;;;5073679;28;19909;-80
2022/11/13 10:02:24;;;;;;;;;;;12.70;99.90;;;;;;5075690;28;20339;-80
2022/11/13 10:04:50;;;;;;;;;;;12.80;99.90;;;;;;5073927;28;19908;-80
2022/11/13 10:07:21;;;;;;;;;;;12.90;99.90;;;;;;5072024;28;19915;-80
2022/11/13 10:09:54;;;;;;;;;;;13.10;99.90;;;;;;5073677;28;19909;-81
2022/11/13 10:12:19;;;;;;;;;;;13.20;99.90;;;;;;5073523;28;19912;-80
2022/11/13 10:14:47;;;;;;;;;;;13.20;99.90;;;;;;5075054;28;20421;-78
2022/11/13 10:17:27;;;;;;;;;;;13.30;99.90;;;;;;5074219;28;19908;-79
2022/11/13 10:20:01;;;;;;;;;;;13.40;99.90;;;;;;5073072;28;19912;-79
2022/11/13 10:22:26;;;;;;;;;;;13.60;99.90;;;;;;5074081;28;19908;-79
2022/11/13 10:24:53;;;;;;;;;;;13.70;99.90;;;;;;5073081;28;20470;-80
2022/11/13 10:27:18;;;;;;;;;;;13.70;99.90;;;;;;5073281;28;19982;-80
2022/11/13 10:29:44;;;;;;;;;;;13.80;99.90;;;;;;5073451;28;20417;-80
2022/11/13 10:32:18;;;;;;;;;;;13.90;99.90;;;;;;5073099;28;19928;-79
2022/11/13 10:34:46;;;;;;;;;;;13.90;99.90;;;;;;5072703;28;20042;-79
2022/11/13 10:37:33;;;;;;;;;;;14.10;99.90;;;;;;5074428;28;19961;-79
2022/11/13 10:39:59;;;;;;;;;;;14.10;99.90;;;;;;5073684;28;20039;-79
2022/11/13 10:42:26;;;;;;;;;;;14.30;99.90;;;;;;5089062;28;19951;-79
2022/11/13 10:44:53;;;;;;;;;;;14.30;99.90;;;;;;5074140;28;19909;-78
2022/11/13 10:47:20;;;;;;;;;;;14.50;99.90;;;;;;5073840;28;19909;-80
2022/11/13 10:49:45;;;;;;;;;;;14.60;99.90;;;;;;5072556;28;20274;-79
2022/11/13 10:52:15;;;;;;;;;;;14.70;99.90;;;;;;5072775;28;19919;-79
2022/11/13 10:54:41;;;;;;;;;;;14.90;99.90;;;;;;5073300;28;19913;-79
2022/11/13 10:57:19;;;;;;;;;;;15.10;99.90;;;;;;5073198;28;20274;-81
2022/11/13 10:59:45;;;;;;;;;;;17.00;99.90;;;;;;5073893;28;19938;-80
2022/11/13 11:02:10;;;;;;;;;;;20.10;94.90;;;;;;5074425;28;19957;-82
2022/11/13 11:04:36;;;;;;;;;;;22.00;80.00;;;;;;5074532;28;20362;-82
2022/11/13 11:07:31;;;;;;;;;;;21.90;70.50;;;;;;5076224;28;20369;-79
2022/11/13 11:09:56;;;;;;;;;;;21.10;65.70;;;;;;5079018;28;19908;-82
2022/11/13 11:12:23;;;;;;;;;;;20.00;63.80;;;;;;5074457;28;20051;-81
2022/11/13 11:14:57;;;;;;;;;;;19.10;63.30;;;;;;5073850;28;19915;-82
2022/11/13 11:17:29;;;;;;;;;;;18.60;66.70;;;;;;5074470;28;19999;-82
2022/11/13 11:19:58;;;;;;;;;;;18.40;67.20;;;;;;5074204;28;19923;-82
2022/11/13 11:22:26;;;;;;;;;;;18.40;68.10;;;;;;5074117;28;19908;-82
2022/11/13 11:24:58;;;;;;;;;;;19.70;67.50;;;;;;5074241;28;19915;-82
2022/11/13 11:27:27;;;;;;;;;;;22.60;60.80;;;;;;5074572;28;19908;-82
2022/11/13 11:29:53;;;;;;;;;;;26.00;52.00;;;;;;5074387;28;19931;-79
2022/11/13 11:32:19;;;;;;;;;;;;;;;;;;5076348;22;20023;-82
2022/11/13 11:35:20;;;;;;;;;;;30.30;41.60;;;;;;5057429;28;19908;-81
2022/11/13 11:37:58;;;;;;;;;;;31.80;35.80;;;;;;5015090;28;19909;-81
2022/11/13 11:40:31;;;;;;;;;;;33.50;32.90;;;;;;5047786;28;20329;-82
2022/11/13 11:43:08;;;;;;;;;;;34.60;31.40;;;;;;5037252;28;19910;-82
2022/11/13 11:45:36;;;;;;;;;;;35.70;30.20;;;;;;5052640;28;19921;-82
2022/11/13 11:48:03;;;;;;;;;;;36.10;29.30;;;;;;5052706;28;19909;-82
2022/11/13 11:50:29;;;;;;;;;;;36.10;28.40;;;;;;5052546;28;19909;-82
2022/11/13 11:53:03;;;;;;;;;;;36.00;27.60;;;;;;5052532;28;20270;-83
2022/11/13 11:55:55;;;;;;;;;;;35.80;27.30;;;;;;5037219;28;19920;-81
2022/11/13 11:58:53;;;;;;;;;;;35.20;29.90;;;;;;5020757;28;19910;-83
2022/11/13 12:01:37;;;;;;;;;;;33.90;30.70;;;;;;5014210;28;19996;-83
2022/11/13 12:04:03;;;;;;;;;;;32.90;28.20;;;;;;5036608;28;19909;-82
2022/11/13 12:06:31;;;;;;;;;;;33.00;28.20;;;;;;5037012;28;20004;-82
2022/11/13 12:09:05;;;;;;;;;;;33.30;28.00;;;;;;5036952;28;20278;-82
2022/11/13 12:11:35;;;;;;;;;;;34.00;27.70;;;;;;5036743;28;19913;-82
2022/11/13 12:14:19;;;;;;;;;;;35.10;29.20;;;;;;5051507;28;19909;-82
2022/11/13 12:17:01;;;;;;;;;;;35.60;28.30;;;;;;5037169;28;19939;-83
2022/11/13 12:19:36;;;;;;;;;;;35.20;27.30;;;;;;5036339;28;19924;-82
2022/11/13 12:22:13;;;;;;;;;;;33.70;26.80;;;;;;5036674;28;20003;-81
2022/11/13 12:24:38;;;;;;;;;;;33.50;29.20;;;;;;5035085;28;19915;-82
2022/11/13 12:27:12;;;;;;;;;;;32.30;29.70;;;;;;5052463;28;19913;-83
2022/11/13 12:29:44;;;;;;;;;;;30.50;29.90;;;;;;5052190;28;20465;-83
2022/11/13 12:32:31;;;;;;;;;;;28.90;30.20;;;;;;5036848;28;19964;-83
2022/11/13 12:34:59;;;;;;;;;;;28.70;30.60;;;;;;5035293;28;19959;-82
2022/11/13 12:37:51;;;;;;;;;;;28.40;32.50;;;;;;5051761;28;19909;-82
2022/11/13 12:40:31;;;;;;;;;;;29.80;30.90;;;;;;5019326;28;20004;-81
2022/11/13 12:43:16;;;;;;;;;;;32.10;31.80;;;;;;5036162;28;20313;-83
2022/11/13 12:45:50;;;;;;;;;;;33.20;30.00;;;;;;5051486;28;19913;-81
2022/11/13 12:48:18;;;;;;;;;;;33.50;28.30;;;;;;5036288;28;19915;-82
2022/11/13 12:50:55;;;;;;;;;;;33.40;28.30;;;;;;5035949;28;19917;-81
2022/11/13 12:53:25;;;;;;;;;;;33.70;27.70;;;;;;5035666;28;19909;-82
2022/11/13 12:55:58;;;;;;;;;;;34.50;27.90;;;;;;5036224;28;19919;-81
2022/11/13 12:58:26;;;;;;;;;;;34.30;27.10;;;;;;5051476;28;19992;-81
2022/11/13 13:00:58;;;;;;;;;;;33.90;26.70;;;;;;5036024;28;19909;-81
2022/11/13 13:03:24;;;;;;;;;;;32.90;27.50;;;;;;5036140;28;20052;-81
2022/11/13 13:06:01;;;;;;;;;;;31.30;28.70;;;;;;5051283;28;19944;-83
2022/11/13 13:08:38;;;;;;;;;;;30.20;28.40;;;;;;5051066;28;19909;-81
2022/11/13 13:11:10;;;;;;;;;;;30.50;29.70;;;;;;5051112;28;20381;-81
2022/11/13 13:13:43;;;;;;;;;;;30.70;28.30;;;;;;5035514;28;19909;-81
2022/11/13 13:16:09;;;;;;;;;;;30.00;28.80;;;;;;5050914;28;19955;-81
2022/11/13 13:18:35;;;;;;;;;;;28.90;29.40;;;;;;5050329;28;19957;-81
2022/11/13 13:21:12;;;;;;;;;;;27.90;30.00;;;;;;5051116;28;19913;-81
2022/11/13 13:23:39;;;;;;;;;;;27.00;30.40;;;;;;5050716;28;20366;-80
2022/11/13 13:26:17;;;;;;;;;;;25.90;31.50;;;;;;5035408;28;20320;-81
2022/11/13 13:29:02;;;;;;;;;;;24.70;31.70;;;;;;5035915;28;19964;-83
2022/11/13 13:31:28;;;;;;;;;;;23.70;32.60;;;;;;5028099;28;19983;-81
2022/11/13 13:33:59;;;;;;;;;;;22.80;33.90;;;;;;5035531;28;20374;-82
2022/11/13 13:36:31;;;;;;;;;;;22.20;35.00;;;;;;5051107;28;19909;-82
2022/11/13 13:39:03;;;;;;;;;;;21.70;38.60;;;;;;5051181;28;19909;-81
2022/11/13 13:41:47;;;;;;;;;;;21.40;40.90;;;;;;5036248;28;19920;-83
2022/11/13 13:44:13;;;;;;;;;;;21.10;40.00;;;;;;5050137;28;19913;-79
2022/11/13 13:46:39;;;;;;;;;;;20.80;41.60;;;;;;5035003;28;19954;-80
2022/11/13 13:49:13;;;;;;;;;;;20.60;41.00;;;;;;5034583;28;19917;-78
2022/11/13 13:51:46;;;;;;;;;;;20.30;42.50;;;;;;5035102;28;20366;-80
2022/11/13 13:54:17;;;;;;;;;;;20.20;43.30;;;;;;5031967;28;19917;-81
2022/11/13 13:56:43;;;;;;;;;;;20.00;44.10;;;;;;5035112;28;19909;-82
2022/11/13 13:59:14;;;;;;;;;;;19.80;42.90;;;;;;5037776;28;19909;-81
2022/11/13 14:01:39;;;;;;;;;;;19.70;43.60;;;;;;5040156;28;19915;-81
2022/11/13 14:04:13;;;;;;;;;;;19.50;43.70;;;;;;5040570;28;20284;-80
2022/11/13 14:06:52;;;;;;;;;;;19.40;44.00;;;;;;5036796;28;19909;-80
2022/11/13 14:09:18;;;;;;;;;;;19.40;50.10;;;;;;5042251;28;19960;-80
2022/11/13 14:11:44;;;;;;;;;;;19.30;48.50;;;;;;5039341;28;20333;-81
2022/11/13 14:14:15;;;;;;;;;;;19.20;49.60;;;;;;5034501;28;19936;-82
2022/11/13 14:16:47;;;;;;;;;;;19.10;51.40;;;;;;5038177;28;19909;-81
2022/11/13 14:19:12;;;;;;;;;;;19.00;52.40;;;;;;5036841;28;19909;-83
2022/11/13 14:21:38;;;;;;;;;;;19.00;52.10;;;;;;5039037;28;20282;-82
2022/11/13 14:24:04;;;;;;;;;;;18.90;54.80;;;;;;5034413;28;20345;-80
2022/11/13 14:26:30;;;;;;;;;;;18.80;52.20;;;;;;5040850;28;19916;-81
2022/11/13 14:28:57;;;;;;;;;;;18.70;59.80;;;;;;5035319;28;20293;-79
2022/11/13 14:31:29;;;;;;;;;;;18.60;66.20;;;;;;5034329;28;20138;-79